Time;durP1;ratioP1;P1;durP2;ratioP2;P2;SDS_P1;SDS_P2;PMS_P1;PMS_P2;Temp;Humidity;BMP_temperature;BMP_pressure;BME280_temperature;BME280_humidity;BME280_pressure;Samples;Min_cycle;Max_cycle;Signal;HPM_P1;HPM_P2
2023/01/31 00:01:33;;;;;;;;;20.67;18.33;;;;;7.62;63.46;102444.56;5017352;28;45771;-73
2023/01/31 00:04:01;;;;;;;;;21.33;18.67;;;;;7.91;63.37;102485.31;5017477;28;45448;-72
2023/01/31 00:06:35;;;;;;;;;23.00;21.67;;;;;7.83;63.23;102463.72;5017664;28;45375;-70
2023/01/31 00:09:02;;;;;;;;;17.00;15.67;;;;;7.38;62.99;102385.00;5017653;28;45343;-72
2023/01/31 00:11:29;;;;;;;;;16.00;15.00;;;;;7.89;63.52;102459.88;5015918;28;47628;-73
2023/01/31 00:13:56;;;;;;;;;22.33;18.00;;;;;7.85;63.51;102463.63;4999552;28;45448;-72
2023/01/31 00:16:22;;;;;;;;;18.33;15.33;;;;;7.89;63.38;102465.16;4999525;28;45369;-72
2023/01/31 00:18:47;;;;;;;;;19.33;16.33;;;;;7.16;63.33;102348.28;5017540;28;45382;-73
2023/01/31 00:21:16;;;;;;;;;22.00;17.67;;;;;7.58;63.83;102424.47;5016997;28;45971;-73
2023/01/31 00:23:43;;;;;;;;;19.00;15.33;;;;;7.50;63.63;102407.31;4999326;28;45396;-74
2023/01/31 00:26:14;;;;;;;;;23.67;18.67;;;;;7.39;63.41;102392.00;5015866;28;45266;-72
2023/01/31 00:28:41;;;;;;;;;27.67;21.00;;;;;7.79;64.01;102458.66;5016991;28;45295;-72
2023/01/31 00:31:07;;;;;;;;;18.33;15.67;;;;;7.77;63.84;102468.47;5016969;28;45934;-73
2023/01/31 00:33:34;;;;;;;;;20.33;18.00;;;;;7.55;64.03;102429.94;5017076;28;45270;-72
2023/01/31 00:36:03;;;;;;;;;22.67;21.67;;;;;7.59;63.85;102454.44;5017004;28;45290;-73
2023/01/31 00:38:28;;;;;;;;;22.33;18.00;;;;;7.63;64.40;102456.84;5015844;28;45603;-72
2023/01/31 00:40:54;;;;;;;;;23.33;18.67;;;;;7.70;64.09;102459.16;5016735;28;49800;-72
2023/01/31 00:43:20;;;;;;;;;21.67;17.00;;;;;7.58;63.85;102443.00;5015611;28;45538;-72
2023/01/31 00:45:45;;;;;;;;;18.67;16.67;;;;;7.28;64.55;102399.69;5016986;28;45227;-72
2023/01/31 00:48:11;;;;;;;;;24.33;20.00;;;;;7.48;64.41;102433.84;5017107;28;45272;-74
2023/01/31 00:50:36;;;;;;;;;20.67;17.67;;;;;7.65;64.41;102461.22;5016599;28;47968;-74
2023/01/31 00:53:02;;;;;;;;;22.00;19.67;;;;;7.56;64.52;102463.41;5016844;28;45235;-72
2023/01/31 00:55:28;;;;;;;;;18.00;17.00;;;;;6.61;64.61;102305.44;5015469;28;45271;-73
2023/01/31 00:57:53;;;;;;;;;24.00;21.33;;;;;7.19;64.76;102408.09;5017287;28;45545;-72
2023/01/31 01:00:18;;;;;;;;;20.67;18.67;;;;;6.78;64.67;102326.53;5016691;28;53550;-71
2023/01/31 01:02:44;;;;;;;;;22.67;16.33;;;;;7.38;64.57;102422.03;5016864;28;45400;-70
2023/01/31 01:05:09;;;;;;;;;21.33;16.67;;;;;7.51;64.86;102467.25;5016748;28;45228;-72
2023/01/31 01:07:34;;;;;;;;;23.67;21.00;;;;;7.51;64.69;102449.56;5017339;28;45377;-72
2023/01/31 01:10:00;;;;;;;;;16.33;16.33;;;;;7.23;65.22;102402.56;5016509;28;54165;-73
2023/01/31 01:12:25;;;;;;;;;21.67;17.00;;;;;7.43;65.15;102446.50;5016582;28;45431;-70
2023/01/31 01:14:50;;;;;;;;;19.67;19.67;;;;;7.22;64.99;102405.31;5016152;28;55836;-71
2023/01/31 01:17:16;;;;;;;;;22.00;20.67;;;;;7.44;64.71;102445.56;4998915;28;45584;-72
2023/01/31 01:19:41;;;;;;;;;23.67;21.67;;;;;7.44;64.61;102440.25;5016437;28;45540;-71
2023/01/31 01:22:06;;;;;;;;;16.00;13.67;;;;;7.08;64.78;102361.06;5016588;28;45399;-72
2023/01/31 01:24:32;;;;;;;;;18.67;16.00;;;;;6.71;64.86;102314.56;5016572;28;45352;-73
2023/01/31 01:26:58;;;;;;;;;23.67;21.00;;;;;6.85;64.97;102341.13;5016459;28;45505;-71
2023/01/31 01:29:23;;;;;;;;;18.33;14.00;;;;;7.43;64.58;102435.06;5016259;28;45765;-73
2023/01/31 01:31:48;;;;;;;;;20.33;20.00;;;;;7.45;64.60;102452.56;5018481;28;45361;-72
2023/01/31 01:34:16;;;;;;;;;21.67;19.33;;;;;7.47;64.50;102444.53;5019767;28;45488;-72
2023/01/31 01:36:42;;;;;;;;;24.33;19.67;;;;;7.45;64.81;102444.63;5019990;28;45182;-73
2023/01/31 01:39:10;;;;;;;;;24.33;20.67;;;;;7.42;64.95;102444.78;5018403;28;47209;-74
2023/01/31 01:41:36;;;;;;;;;24.00;18.67;;;;;7.17;65.10;102399.38;5018222;28;45398;-72
2023/01/31 01:44:40;;;;;;;;;18.67;17.00;;;;;7.45;65.05;102447.25;5018289;28;45392;-72
2023/01/31 01:47:20;;;;;;;;;19.00;17.33;;;;;7.45;64.78;102441.97;5015758;28;45488;-72
2023/01/31 01:49:52;;;;;;;;;18.00;15.00;;;;;6.84;65.12;102355.28;5019605;28;45558;-72
2023/01/31 01:52:18;;;;;;;;;17.67;16.00;;;;;7.42;64.72;102441.28;5001551;28;45339;-70
2023/01/31 01:54:52;;;;;;;;;18.33;15.67;;;;;7.00;64.57;102390.53;5019545;28;45237;-72
2023/01/31 01:57:23;;;;;;;;;17.67;16.67;;;;;6.90;65.20;102368.19;5019816;28;45294;-71
2023/01/31 02:00:03;;;;;;;;;20.00;15.67;;;;;7.38;65.13;102434.41;5019133;28;46653;-71
2023/01/31 02:02:29;;;;;;;;;18.33;15.00;;;;;6.86;65.31;102348.13;5019134;28;45507;-71
2023/01/31 02:04:54;;;;;;;;;16.00;15.00;;;;;7.17;64.98;102380.88;5019483;28;45247;-72
2023/01/31 02:07:20;;;;;;;;;21.00;17.00;;;;;7.42;65.22;102431.56;5019706;28;45265;-72
2023/01/31 02:10:07;;;;;;;;;16.00;14.00;;;;;7.32;64.78;102409.16;5019137;28;46045;-72
2023/01/31 02:12:34;;;;;;;;;19.33;18.00;;;;;7.41;65.38;102429.84;5019121;28;45251;-71
2023/01/31 02:15:00;;;;;;;;;20.00;18.67;;;;;7.29;65.21;102419.91;5019269;28;45202;-70
2023/01/31 02:17:25;;;;;;;;;18.67;16.33;;;;;6.43;65.50;102264.13;5020015;28;45490;-71
2023/01/31 02:20:12;;;;;;;;;20.67;19.00;;;;;7.37;65.54;102422.97;5017822;28;47796;-71
2023/01/31 02:22:58;;;;;;;;;19.33;16.33;;;;;7.37;64.99;102416.84;5019678;28;45416;-70
2023/01/31 02:25:51;;;;;;;;;18.33;16.00;;;;;7.36;65.42;102426.56;5019476;28;45326;-71
2023/01/31 02:28:36;;;;;;;;;22.00;16.67;;;;;6.70;65.30;102318.16;5019163;28;45316;-71
2023/01/31 02:31:10;;;;;;;;;16.00;14.67;;;;;7.37;65.30;102425.63;5018711;28;46542;-70
2023/01/31 02:33:46;;;;;;;;;18.67;18.00;;;;;7.29;65.22;102422.56;5018700;28;45298;-72
2023/01/31 02:36:37;;;;;;;;;17.67;15.67;;;;;7.27;65.09;102422.63;5019021;28;45245;-72
2023/01/31 02:39:18;;;;;;;;;23.33;19.67;;;;;7.31;65.23;102429.47;4980007;28;45574;-68
2023/01/31 02:41:55;;;;;;;;;23.33;20.33;;;;;7.27;65.23;102438.50;5000077;28;48449;-73
2023/01/31 02:44:59;;;;;;;;;24.33;21.00;;;;;7.27;64.95;102432.34;5016865;28;45310;-70
2023/01/31 02:48:01;;;;;;;;;20.33;19.00;;;;;7.24;65.01;102441.31;4938386;28;45443;-71
2023/01/31 02:50:38;;;;;;;;;20.67;17.33;;;;;7.22;65.07;102434.41;5019875;28;45432;-70
2023/01/31 02:53:13;;;;;;;;;26.00;21.00;;;;;7.19;65.27;102435.41;5018396;28;46786;-73
2023/01/31 02:58:41;;;;;;;;;19.00;17.67;;;;;7.15;65.78;102425.06;5018425;28;45253;-71
2023/01/31 03:01:12;;;;;;;;;18.33;18.33;;;;;7.11;65.85;102426.16;5018540;28;45349;-71
2023/01/31 03:03:38;;;;;;;;;18.67;15.67;;;;;6.50;66.31;102340.31;5018257;28;45432;-71
2023/01/31 03:06:25;;;;;;;;;22.67;20.67;;;;;7.00;66.63;102430.22;5018150;28;45403;-71
2023/01/31 03:09:03;;;;;;;;;19.00;19.00;;;;;7.02;65.83;102422.22;5018477;28;45289;-71
2023/01/31 03:11:49;;;;;;;;;21.33;17.67;;;;;6.55;66.07;102346.22;5018324;28;45470;-71
2023/01/31 03:14:41;;;;;;;;;17.00;13.00;;;;;7.03;66.21;102423.94;5016588;28;48836;-71
2023/01/31 03:17:33;;;;;;;;;22.67;19.67;;;;;6.97;65.72;102416.31;4999969;28;46793;-72
2023/01/31 03:20:07;;;;;;;;;17.33;15.67;;;;;7.06;65.94;102433.50;5018214;28;45220;-71
2023/01/31 03:22:36;;;;;;;;;21.33;18.00;;;;;7.00;66.66;102418.78;5018437;28;45433;-71
2023/01/31 03:25:04;;;;;;;;;17.00;17.00;;;;;7.01;66.00;102429.31;5018022;28;46463;-71
2023/01/31 03:27:30;;;;;;;;;21.00;19.33;;;;;6.53;66.47;102363.09;5017554;28;45376;-69
2023/01/31 03:30:11;;;;;;;;;20.00;16.00;;;;;6.26;66.35;102310.72;5017890;28;45368;-71
2023/01/31 03:32:43;;;;;;;;;23.67;18.00;;;;;6.82;66.25;102404.75;5016882;28;45668;-72
2023/01/31 03:35:10;;;;;;;;;17.00;14.67;;;;;7.01;66.18;102442.53;5016357;28;46564;-70
2023/01/31 03:37:49;;;;;;;;;22.33;21.00;;;;;6.94;66.06;102434.97;5017530;28;45488;-71
2023/01/31 03:40:26;;;;;;;;;18.67;15.67;;;;;6.99;66.43;102436.44;5017853;28;45416;-71
2023/01/31 03:43:11;;;;;;;;;17.67;17.67;;;;;6.62;66.36;102378.50;5017921;28;45458;-70
2023/01/31 03:45:56;;;;;;;;;20.00;18.00;;;;;6.95;66.33;102428.75;5017499;28;46661;-72
2023/01/31 03:48:28;;;;;;;;;22.00;19.00;;;;;5.77;66.42;102233.97;5017472;28;45204;-72
2023/01/31 03:51:00;;;;;;;;;17.67;16.67;;;;;6.51;66.18;102368.44;5017377;28;45286;-71
2023/01/31 03:53:34;;;;;;;;;22.67;17.67;;;;;6.67;66.01;102392.31;5017201;28;45361;-72
2023/01/31 03:56:08;;;;;;;;;19.33;17.00;;;;;6.89;66.34;102431.72;5016816;28;48588;-72
2023/01/31 03:58:40;;;;;;;;;17.67;16.00;;;;;6.70;66.51;102429.16;5017215;28;45196;-71
2023/01/31 04:01:08;;;;;;;;;16.33;15.33;;;;;6.74;66.51;102428.06;5017577;28;45557;-73
2023/01/31 04:03:49;;;;;;;;;15.33;14.67;;;;;6.46;66.96;102365.19;5017868;28;45469;-73
2023/01/31 04:06:14;;;;;;;;;17.67;11.00;;;;;6.60;66.47;102393.53;5017297;28;46461;-70
2023/01/31 04:08:41;;;;;;;;;13.67;13.33;;;;;6.34;66.56;102353.44;5015863;28;45561;-70
2023/01/31 04:11:10;;;;;;;;;15.33;14.00;;;;;6.83;66.97;102450.53;5017464;28;45209;-70
2023/01/31 04:13:35;;;;;;;;;13.33;11.00;;;;;6.68;66.95;102426.59;5017561;28;45497;-71
2023/01/31 04:16:01;;;;;;;;;17.00;14.67;;;;;6.28;66.74;102351.13;5017200;28;45535;-69
2023/01/31 04:18:26;;;;;;;;;12.00;12.00;;;;;6.78;66.74;102434.03;5015999;28;45575;-72
2023/01/31 04:20:52;;;;;;;;;17.00;11.67;;;;;6.32;66.92;102362.38;5016220;28;45606;-69
2023/01/31 04:23:17;;;;;;;;;16.67;15.00;;;;;6.68;67.12;102434.53;5017362;28;45559;-72
2023/01/31 04:25:43;;;;;;;;;15.33;12.00;;;;;6.00;66.85;102304.09;4999283;28;47972;-70
2023/01/31 04:28:09;;;;;;;;;12.00;11.00;;;;;6.61;66.96;102411.13;5017007;28;45452;-69
2023/01/31 04:30:34;;;;;;;;;14.67;11.33;;;;;6.71;67.21;102434.34;5015859;28;45587;-71
2023/01/31 04:33:00;;;;;;;;;13.33;11.67;;;;;6.63;67.22;102446.25;5016101;28;45555;-70
2023/01/31 04:35:25;;;;;;;;;14.33;10.67;;;;;6.61;67.55;102437.56;5016938;28;45859;-70
2023/01/31 04:37:51;;;;;;;;;11.00;7.67;;;;;6.66;67.30;102462.81;5016961;28;45275;-72
2023/01/31 04:40:16;;;;;;;;;11.33;8.67;;;;;6.66;67.30;102461.97;5016908;28;45449;-69
2023/01/31 04:42:42;;;;;;;;;8.67;8.67;;;;;6.55;67.72;102428.13;4999293;28;45564;-71
2023/01/31 04:45:07;;;;;;;;;15.00;11.00;;;;;6.69;67.77;102457.38;5016731;28;45540;-70
2023/01/31 04:47:33;;;;;;;;;10.33;10.33;;;;;6.45;66.97;102399.63;5016901;28;45496;-72
2023/01/31 04:49:58;;;;;;;;;16.33;12.33;;;;;6.23;67.19;102369.00;5017012;28;45270;-70
2023/01/31 04:52:24;;;;;;;;;11.00;11.00;;;;;6.54;67.87;102426.41;4999238;28;45674;-70
2023/01/31 04:54:49;;;;;;;;;15.33;11.00;;;;;6.62;67.15;102444.56;5016682;28;45648;-71
2023/01/31 04:57:14;;;;;;;;;10.00;9.00;;;;;5.73;67.80;102284.31;5015058;28;46307;-71
2023/01/31 04:59:40;;;;;;;;;12.00;12.00;;;;;6.62;67.21;102440.13;5016921;28;45523;-71
2023/01/31 05:02:05;;;;;;;;;17.00;13.33;;;;;6.60;67.31;102447.25;5017039;28;45136;-71
2023/01/31 05:04:31;;;;;;;;;12.67;11.00;;;;;6.53;67.50;102426.50;5015168;28;48312;-69
2023/01/31 05:06:56;;;;;;;;;13.00;13.00;;;;;6.38;67.02;102404.34;5018853;28;45498;-71
2023/01/31 05:09:21;;;;;;;;;13.67;12.00;;;;;6.65;67.12;102449.69;5020127;28;45548;-70
2023/01/31 05:11:48;;;;;;;;;16.33;13.67;;;;;6.61;66.82;102449.00;5002281;28;45542;-70
2023/01/31 05:14:13;;;;;;;;;9.00;9.00;;;;;6.62;67.06;102431.34;5020329;28;45729;-71
2023/01/31 05:16:39;;;;;;;;;14.00;13.00;;;;;6.36;66.88;102385.91;5019972;28;45485;-72
2023/01/31 05:19:05;;;;;;;;;12.00;10.67;;;;;5.94;67.21;102300.91;5019958;28;45418;-72
2023/01/31 05:21:53;;;;;;;;;10.67;10.00;;;;;6.44;67.43;102393.47;5019909;28;45236;-70
2023/01/31 05:24:15;;;;;;;;;13.00;12.00;;;;;6.48;67.20;102404.75;5019758;28;45315;-70
2023/01/31 05:26:41;;;;;;;;;18.33;14.00;;;;;6.55;67.24;102412.28;5019376;28;45187;-71
2023/01/31 05:29:06;;;;;;;;;11.67;9.33;;;;;6.30;67.33;102373.03;5019383;28;46580;-71
2023/01/31 05:31:31;;;;;;;;;8.67;8.00;;;;;6.50;67.30;102418.72;5020276;28;45358;-73
2023/01/31 05:33:57;;;;;;;;;14.00;12.33;;;;;6.24;66.89;102365.44;5019444;28;45941;-71
2023/01/31 05:36:22;;;;;;;;;11.33;10.33;;;;;5.99;66.69;102312.09;5019462;28;45240;-72
2023/01/31 05:38:49;;;;;;;;;15.00;12.00;;;;;6.28;66.70;102356.41;5019798;28;45279;-72
2023/01/31 05:41:14;;;;;;;;;12.33;11.00;;;;;6.63;66.67;102425.13;5019925;28;45409;-72
2023/01/31 05:43:40;;;;;;;;;11.00;11.00;;;;;6.61;67.36;102437.56;5019064;28;45503;-70
2023/01/31 05:46:05;;;;;;;;;11.33;9.67;;;;;6.61;66.94;102437.56;5019522;28;45366;-70
2023/01/31 05:48:30;;;;;;;;;9.67;8.67;;;;;6.55;67.15;102425.50;5019594;28;45427;-73
2023/01/31 05:50:56;;;;;;;;;10.00;10.00;;;;;6.57;67.05;102425.41;5019335;28;45570;-72
2023/01/31 05:53:21;;;;;;;;;10.67;10.00;;;;;6.62;67.02;102439.28;5019199;28;45625;-72
2023/01/31 05:55:48;;;;;;;;;11.33;10.33;;;;;6.53;67.32;102431.78;5019418;28;45318;-71
2023/01/31 05:58:14;;;;;;;;;11.67;8.00;;;;;5.72;67.16;102280.84;5019405;28;45275;-70
2023/01/31 06:00:39;;;;;;;;;10.67;9.33;;;;;6.65;67.43;102433.81;5019399;28;45356;-74
2023/01/31 06:03:04;;;;;;;;;8.67;8.00;;;;;6.28;67.55;102377.53;5018847;28;45757;-71
2023/01/31 06:05:30;;;;;;;;;18.33;12.33;;;;;6.68;67.33;102439.81;5019091;28;45320;-71
2023/01/31 06:07:55;;;;;;;;;11.33;9.00;;;;;6.71;67.55;102430.88;5018723;28;50960;-70
2023/01/31 06:10:21;;;;;;;;;20.00;12.00;;;;;6.55;67.79;102390.28;5019320;28;45371;-72
2023/01/31 06:12:47;;;;;;;;;10.00;8.67;;;;;6.41;67.20;102348.72;5019789;28;46334;-72
2023/01/31 06:15:12;;;;;;;;;10.00;9.00;;;;;6.86;67.60;102421.31;5019776;28;45475;-73
2023/01/31 06:17:37;;;;;;;;;9.00;8.00;;;;;6.77;67.48;102406.75;5012059;28;45900;-72
2023/01/31 06:20:03;;;;;;;;;7.00;7.00;;;;;6.42;67.47;102341.66;5019028;28;45518;-71
2023/01/31 06:22:29;;;;;;;;;12.33;6.67;;;;;6.90;67.20;102413.13;5018573;28;45271;-70
2023/01/31 06:24:54;;;;;;;;;8.67;7.33;;;;;6.91;66.99;102421.91;5024713;28;45278;-71
2023/01/31 06:27:20;;;;;;;;;7.33;7.00;;;;;6.86;66.82;102406.28;5026235;28;45546;-72
2023/01/31 06:29:45;;;;;;;;;11.00;7.67;;;;;6.67;66.76;102385.25;5027253;28;53207;-72
2023/01/31 06:32:10;;;;;;;;;10.00;8.67;;;;;6.15;66.64;102284.00;5021516;28;51451;-72
2023/01/31 06:34:35;;;;;;;;;13.33;9.33;;;;;6.93;66.73;102412.97;5017462;28;45881;-70
2023/01/31 06:37:01;;;;;;;;;11.00;9.00;;;;;7.23;66.54;102449.34;5010105;28;45538;-70
2023/01/31 06:39:26;;;;;;;;;8.67;6.00;;;;;7.04;66.28;102422.16;5020843;28;45437;-72
2023/01/31 06:41:52;;;;;;;;;7.00;4.67;;;;;7.10;66.48;102424.47;5038295;28;45758;-71
2023/01/31 06:44:17;;;;;;;;;13.33;11.67;;;;;7.31;66.23;102449.78;5038282;28;45542;-70
2023/01/31 06:46:42;;;;;;;;;19.33;17.00;;;;;7.31;66.10;102444.47;5028962;28;45268;-69
2023/01/31 06:49:08;;;;;;;;;10.33;10.33;;;;;7.40;66.15;102491.59;5028673;28;45624;-70
2023/01/31 06:51:33;;;;;;;;;8.67;8.67;;;;;7.47;65.59;102468.34;5036624;28;60211;-71
2023/01/31 06:53:58;;;;;;;;;7.33;6.00;;;;;7.43;65.25;102457.06;5039207;28;45344;-71
2023/01/31 06:56:24;;;;;;;;;6.00;6.00;;;;;7.47;65.27;102465.69;5033001;28;45477;-71
2023/01/31 06:58:49;;;;;;;;;14.67;9.33;;;;;7.57;65.35;102488.06;5017285;28;45360;-69
2023/01/31 07:01:15;;;;;;;;;9.33;7.67;;;;;7.60;64.95;102472.88;5018575;28;46606;-70
2023/01/31 07:03:41;;;;;;;;;9.67;7.00;;;;;6.88;65.04;102334.84;5019010;28;45482;-70
2023/01/31 07:06:08;;;;;;;;;11.00;11.00;;;;;7.57;64.91;102457.16;5024654;28;45372;-69
2023/01/31 07:08:35;;;;;;;;;8.33;5.33;;;;;7.53;64.98;102455.63;5024864;28;45341;-71
2023/01/31 07:11:01;;;;;;;;;5.00;5.00;;;;;7.42;65.03;102467.75;5022131;28;45300;-71
2023/01/31 07:13:27;;;;;;;;;10.00;9.67;;;;;6.77;64.82;102358.31;5028133;28;45549;-70
2023/01/31 07:15:53;;;;;;;;;9.00;7.00;;;;;7.42;64.82;102468.59;5012801;28;45689;-71
2023/01/31 07:18:18;;;;;;;;;5.33;5.33;;;;;7.43;65.20;102462.38;5028822;28;45416;-70
2023/01/31 07:20:43;;;;;;;;;5.33;3.67;;;;;7.48;64.56;102468.25;5021629;28;66279;-70
2023/01/31 07:23:09;;;;;;;;;10.33;9.33;;;;;7.14;64.95;102410.97;5037338;28;45329;-76
2023/01/31 07:25:35;;;;;;;;;9.67;5.67;;;;;7.26;64.56;102420.06;5028255;28;57314;-73
2023/01/31 07:28:01;;;;;;;;;7.33;6.33;;;;;7.58;64.52;102464.16;5032515;28;45556;-72
2023/01/31 07:30:27;;;;;;;;;7.00;6.33;;;;;7.03;64.30;102371.03;5019034;28;48289;-76
2023/01/31 07:32:53;;;;;;;;;7.00;5.00;;;;;7.38;64.41;102426.47;5037622;28;45471;-73
2023/01/31 07:35:19;;;;;;;;;9.00;5.67;;;;;7.40;64.39;102436.03;5019465;28;45273;-70
2023/01/31 07:37:44;;;;;;;;;13.00;8.33;;;;;7.02;64.13;102364.06;5037468;28;45476;-73
2023/01/31 07:40:12;;;;;;;;;10.00;7.67;;;;;6.75;64.29;102313.47;5036665;28;46657;-72
2023/01/31 07:42:38;;;;;;;;;13.33;12.00;;;;;7.01;64.07;102355.25;5018858;28;45656;-73
2023/01/31 07:45:05;;;;;;;;;6.00;4.67;;;;;7.70;64.12;102467.09;5037092;28;45496;-71
2023/01/31 07:47:30;;;;;;;;;10.67;8.33;;;;;7.70;64.03;102462.66;5037299;28;45630;-72
2023/01/31 07:49:56;;;;;;;;;7.67;6.33;;;;;5.72;63.89;102127.78;5037896;28;46378;-74
2023/01/31 07:52:21;;;;;;;;;10.67;6.67;;;;;7.67;63.82;102461.97;5037956;28;45155;-73
2023/01/31 07:54:46;;;;;;;;;7.00;5.67;;;;;7.18;64.01;102396.66;5031535;28;45230;-71
2023/01/31 07:57:12;;;;;;;;;8.33;7.00;;;;;7.63;64.22;102456.84;5019984;28;45399;-72
2023/01/31 07:59:37;;;;;;;;;10.00;9.00;;;;;7.67;64.61;102475.22;5031743;28;46263;-72
2023/01/31 08:04:46;;;;;;;;;7.67;7.67;;;;;7.76;64.17;102477.34;5018689;28;45347;-71
2023/01/31 08:07:12;;;;;;;;;11.33;8.33;;;;;7.58;64.07;102440.34;5019553;28;45448;-72
2023/01/31 08:09:38;;;;;;;;;10.33;7.67;;;;;7.68;64.45;102453.09;5031301;28;46016;-72
2023/01/31 08:12:04;;;;;;;;;15.67;13.00;;;;;7.77;64.01;102468.47;5018317;28;45604;-72
2023/01/31 08:14:30;;;;;;;;;11.33;11.33;;;;;7.63;64.26;102438.31;5027211;28;46452;-73
2023/01/31 08:16:55;;;;;;;;;11.67;9.67;;;;;7.81;64.23;102465.59;5015214;28;45341;-71
2023/01/31 08:19:21;;;;;;;;;13.33;10.67;;;;;7.55;63.85;102406.13;5014464;28;46369;-73
2023/01/31 08:21:47;;;;;;;;;10.67;9.00;;;;;7.49;63.91;102406.44;5016881;28;45258;-72
2023/01/31 08:24:13;;;;;;;;;24.33;20.00;;;;;7.71;64.15;102442.34;5015476;28;45385;-73
2023/01/31 08:26:38;;;;;;;;;12.00;11.67;;;;;7.92;63.35;102459.69;5021773;28;45498;-71
2023/01/31 08:29:03;;;;;;;;;16.00;13.33;;;;;7.36;63.40;102367.50;5035056;28;46883;-71
2023/01/31 08:31:29;;;;;;;;;18.33;16.00;;;;;8.13;63.89;102479.69;5034628;28;53373;-72
2023/01/31 08:33:56;;;;;;;;;18.00;12.00;;;;;7.96;63.82;102458.56;5037031;28;45289;-72
2023/01/31 08:36:24;;;;;;;;;15.00;11.33;;;;;8.02;63.42;102444.16;5036130;28;45404;-72
2023/01/31 08:38:50;;;;;;;;;14.67;12.33;;;;;8.21;63.27;102463.38;5018387;28;47545;-73
2023/01/31 08:41:18;;;;;;;;;15.67;14.00;;;;;8.10;62.85;102447.22;5037860;28;45349;-74
2023/01/31 08:43:44;;;;;;;;;15.33;12.00;;;;;8.41;63.05;102491.41;5022256;28;45372;-72
2023/01/31 08:46:10;;;;;;;;;10.67;8.00;;;;;8.52;62.65;102494.31;5040262;28;45361;-73
2023/01/31 08:48:37;;;;;;;;;7.00;6.00;;;;;8.39;62.48;102487.97;5036257;28;46051;-73
2023/01/31 08:51:05;;;;;;;;;14.67;12.33;;;;;8.50;62.39;102507.66;5002504;28;45303;-72
2023/01/31 08:53:30;;;;;;;;;12.67;11.33;;;;;8.36;62.52;102478.41;5021859;28;45509;-72
2023/01/31 08:56:04;;;;;;;;;3.00;2.67;;;;;8.49;62.25;102507.75;5040216;28;45482;-73
2023/01/31 08:58:34;;;;;;;;;14.00;11.33;;;;;8.12;62.37;102443.53;5039407;28;45406;-73
2023/01/31 09:01:05;;;;;;;;;14.33;12.67;;;;;8.51;62.32;102504.06;5040210;28;45460;-71
2023/01/31 09:03:33;;;;;;;;;17.00;13.33;;;;;8.55;62.16;102504.72;5021834;28;45492;-71
2023/01/31 09:06:00;;;;;;;;;10.00;10.00;;;;;8.15;62.27;102432.75;5040043;28;45388;-76
2023/01/31 09:08:26;;;;;;;;;14.33;12.00;;;;;8.57;62.18;102489.59;5039711;28;46645;-73
2023/01/31 09:10:53;;;;;;;;;16.00;11.00;;;;;8.02;61.69;102388.53;5039672;28;45359;-71
2023/01/31 09:13:19;;;;;;;;;16.00;12.67;;;;;7.79;62.04;102335.06;5038630;28;45264;-71
2023/01/31 09:15:44;;;;;;;;;18.00;15.00;;;;;8.63;61.63;102444.19;5039637;28;45709;-72
2023/01/31 09:18:09;;;;;;;;;13.67;13.00;;;;;8.78;60.79;102453.84;5039495;28;45362;-72
2023/01/31 09:20:35;;;;;;;;;11.33;9.00;;;;;9.07;60.83;102504.34;5039209;28;45463;-71
2023/01/31 09:23:00;;;;;;;;;19.00;15.67;;;;;9.01;60.25;102464.91;5038491;28;45204;-72
2023/01/31 09:25:26;;;;;;;;;17.00;15.67;;;;;9.24;60.71;102482.97;5021674;28;45449;-72
2023/01/31 09:27:52;;;;;;;;;9.67;8.00;;;;;8.87;59.98;102414.50;5038765;28;45262;-72
2023/01/31 09:30:19;;;;;;;;;15.67;11.33;;;;;9.10;59.91;102438.69;5038689;28;45380;-72
2023/01/31 09:32:45;;;;;;;;;10.33;10.33;;;;;9.52;59.40;102502.50;5021611;28;45395;-71
2023/01/31 09:35:11;;;;;;;;;17.33;11.00;;;;;9.41;59.37;102471.28;5039407;28;45487;-72
2023/01/31 09:37:37;;;;;;;;;18.00;13.67;;;;;9.68;59.42;102524.53;5038729;28;46290;-73
2023/01/31 09:40:03;;;;;;;;;14.33;11.67;;;;;9.66;59.34;102515.81;5027330;28;45564;-73
2023/01/31 09:42:42;;;;;;;;;27.00;20.67;;;;;9.65;59.60;102508.78;5020075;28;45476;-70
2023/01/31 09:45:25;;;;;;;;;15.00;13.00;;;;;9.58;59.69;102512.75;5019482;28;45488;-71
2023/01/31 09:47:55;;;;;;;;;11.33;11.33;;;;;9.47;59.15;102472.75;5002892;28;45933;-71
2023/01/31 09:50:29;;;;;;;;;13.00;11.00;;;;;9.79;59.08;102513.22;5019269;28;45444;-71
2023/01/31 09:52:56;;;;;;;;;10.00;9.00;;;;;8.58;58.48;102321.63;5018637;28;45267;-71
2023/01/31 09:55:46;;;;;;;;;9.67;8.00;;;;;9.76;58.28;102514.28;5019176;28;45516;-71
2023/01/31 09:58:24;;;;;;;;;6.67;5.33;;;;;9.35;58.00;102443.34;5017154;28;48111;-72
2023/01/31 10:01:13;;;;;;;;;6.00;6.00;;;;;9.79;57.86;102516.72;5018336;28;45536;-72
2023/01/31 10:03:50;;;;;;;;;23.67;15.33;;;;;8.65;57.47;102349.50;5018838;28;45272;-72
2023/01/31 10:06:33;;;;;;;;;11.33;6.33;;;;;8.68;57.76;102351.97;5000590;28;45277;-73
2023/01/31 10:09:10;;;;;;;;;4.00;4.00;;;;;9.75;57.53;102516.06;5018562;28;46588;-74
2023/01/31 10:11:42;;;;;;;;;6.33;6.33;;;;;9.77;57.69;102514.16;5019088;28;45461;-72
2023/01/31 10:14:29;;;;;;;;;7.33;7.00;;;;;9.58;57.78;102475.56;5001120;28;45315;-71
2023/01/31 10:17:03;;;;;;;;;8.67;7.67;;;;;9.81;57.50;102514.84;5019332;28;45411;-72
2023/01/31 10:19:37;;;;;;;;;9.00;8.33;;;;;9.66;57.32;102486.59;5019913;28;45553;-71
2023/01/31 10:22:08;;;;;;;;;8.33;8.33;;;;;9.90;57.45;102518.72;5018842;28;45330;-73
2023/01/31 10:25:03;;;;;;;;;6.33;6.33;;;;;10.02;57.73;102518.81;5019239;28;45446;-71
2023/01/31 10:27:49;;;;;;;;;13.33;10.00;;;;;9.65;57.43;102459.19;5017837;28;45533;-72
2023/01/31 10:30:19;;;;;;;;;17.00;14.67;;;;;9.17;56.79;102402.00;5017891;28;47753;-72
2023/01/31 10:32:51;;;;;;;;;9.33;9.33;;;;;9.66;56.98;102465.34;5028591;28;45548;-70
2023/01/31 10:35:38;;;;;;;;;14.00;11.00;;;;;9.99;56.73;102508.34;5020286;28;45523;-70
2023/01/31 10:38:15;;;;;;;;;9.33;8.00;;;;;10.16;56.30;102509.09;5037659;28;45425;-72
2023/01/31 10:40:45;;;;;;;;;10.67;8.00;;;;;9.52;56.26;102391.00;5015659;28;48603;-73
2023/01/31 10:43:24;;;;;;;;;48.67;34.00;;;;;10.33;56.43;102508.91;5023729;28;45368;-72
2023/01/31 10:45:49;;;;;;;;;7.00;7.00;;;;;9.90;55.69;102428.41;5032787;28;45475;-73
2023/01/31 10:48:14;;;;;;;;;12.00;7.67;;;;;9.54;55.88;102365.19;5038839;28;45545;-73
2023/01/31 10:50:48;;;;;;;;;8.00;7.67;;;;;10.44;55.43;102508.22;5037518;28;46811;-72
2023/01/31 10:53:22;;;;;;;;;13.67;9.00;;;;;10.54;55.69;102507.50;5038397;28;45269;-72
2023/01/31 10:56:04;;;;;;;;;18.33;14.00;;;;;10.65;55.65;102506.81;5025513;28;45240;-71
2023/01/31 10:58:29;;;;;;;;;17.33;15.33;;;;;10.76;54.61;102516.72;5032965;28;45548;-73
2023/01/31 11:00:55;;;;;;;;;57.67;42.00;;;;;10.18;55.01;102396.41;5037252;28;46488;-73
2023/01/31 11:03:21;;;;;;;;;30.33;20.67;;;;;10.80;54.80;102499.59;5034489;28;45525;-72
2023/01/31 11:05:57;;;;;;;;;10.33;9.67;;;;;10.95;54.67;102504.75;5024609;28;45369;-72
2023/01/31 11:08:59;;;;;;;;;16.67;13.00;;;;;10.94;53.70;102481.75;5039141;28;45153;-73
2023/01/31 11:11:27;;;;;;;;;11.00;8.00;;;;;10.36;54.01;102373.97;5017949;28;46025;-71
2023/01/31 11:14:04;;;;;;;;;10.33;7.67;;;;;10.76;54.11;102432.44;5039373;28;45284;-74
2023/01/31 11:16:34;;;;;;;;;9.00;8.00;;;;;10.86;54.34;102438.84;5026094;28;45420;-77
2023/01/31 11:19:03;;;;;;;;;11.00;9.67;;;;;11.02;54.42;102451.13;5021309;28;45651;-74
2023/01/31 11:21:32;;;;;;;;;16.00;13.33;;;;;10.96;54.00;102445.25;5033467;28;45403;-71
2023/01/31 11:24:05;;;;;;;;;12.33;10.67;;;;;11.10;54.12;102459.41;5038378;28;45309;-71
2023/01/31 11:26:37;;;;;;;;;5.33;5.33;;;;;10.71;53.80;102392.00;5019194;28;45332;-72
2023/01/31 11:29:18;;;;;;;;;7.67;7.00;;;;;11.10;53.20;102448.78;4996633;28;45439;-73
2023/01/31 11:31:46;;;;;;;;;10.33;8.00;;;;;11.12;53.68;102458.34;5032368;28;47182;-73
2023/01/31 11:34:28;;;;;;;;;13.67;12.00;;;;;11.22;54.05;102456.78;5015808;28;45456;-72
2023/01/31 11:37:02;;;;;;;;;13.33;8.00;;;;;11.26;53.56;102442.28;5017396;28;45280;-72
2023/01/31 11:39:32;;;;;;;;;10.33;10.33;;;;;11.32;53.60;102442.81;5014599;28;45629;-78